Time;durP1;ratioP1;P1;durP2;ratioP2;P2;SDS_P1;SDS_P2;PMS_P1;PMS_P2;Temp;Humidity;BMP_temperature;BMP_pressure;BME280_temperature;BME280_humidity;BME280_pressure;Samples;Min_cycle;Max_cycle;Signal;HPM_P1;HPM_P2
2022/08/23 00:01:43;;;;;;;15.25;7.75;;;19.90;99.90;;;;;;5030814;28;20021;-60
2022/08/23 00:04:13;;;;;;;19.35;11.45;;;19.70;99.90;;;;;;5031135;28;20080;-60
2022/08/23 00:06:39;;;;;;;16.52;7.50;;;19.70;99.90;;;;;;5030095;28;20269;-59
2022/08/23 00:09:05;;;;;;;17.38;7.95;;;19.70;99.90;;;;;;5031467;28;20077;-59
2022/08/23 00:11:36;;;;;;;16.38;7.32;;;19.60;99.90;;;;;;5031215;28;20026;-60
2022/08/23 00:14:10;;;;;;;15.05;6.97;;;19.60;99.90;;;;;;5031280;28;20029;-60
2022/08/23 00:16:36;;;;;;;16.65;7.13;;;19.60;99.90;;;;;;5030860;28;20025;-59
2022/08/23 00:19:06;;;;;;;15.23;7.15;;;19.60;99.90;;;;;;5031045;28;20030;-60
2022/08/23 00:21:34;;;;;;;13.60;7.00;;;19.60;99.90;;;;;;5031103;28;20033;-60
2022/08/23 00:24:00;;;;;;;15.95;7.05;;;19.50;99.90;;;;;;5031426;28;20398;-60
2022/08/23 00:26:25;;;;;;;14.65;6.72;;;19.60;99.90;;;;;;5030741;28;20041;-60
2022/08/23 00:28:51;;;;;;;13.63;7.28;;;19.70;99.90;;;;;;5034613;28;20112;-60
2022/08/23 00:31:18;;;;;;;18.23;6.75;;;19.60;99.90;;;;;;5035029;28;20026;-60
2022/08/23 00:33:44;;;;;;;10.57;6.18;;;19.50;99.90;;;;;;5034666;28;20516;-59
2022/08/23 00:36:10;;;;;;;18.35;7.90;;;19.20;99.90;;;;;;5034667;28;20022;-60
2022/08/23 00:38:35;;;;;;;15.50;7.72;;;19.20;99.90;;;;;;5034963;28;20431;-60
2022/08/23 00:41:02;;;;;;;18.63;8.10;;;19.50;99.90;;;;;;5034710;28;20036;-59
2022/08/23 00:49:18;;;;;;;21.65;9.95;;;19.90;99.90;;;;;;5034768;28;20068;-59
2022/08/23 00:52:06;;;;;;;18.63;10.13;;;19.70;99.90;;;;;;5034419;28;20021;-59
2022/08/23 00:54:32;;;;;;;21.48;11.20;;;19.50;99.90;;;;;;5034179;28;20025;-59
2022/08/23 00:57:01;;;;;;;22.58;11.07;;;19.30;99.90;;;;;;5034213;28;20040;-64
2022/08/23 00:59:27;;;;;;;18.98;10.73;;;19.20;99.90;;;;;;5034360;28;20052;-59
2022/08/23 01:01:53;;;;;;;19.98;10.82;;;19.00;99.90;;;;;;5034328;28;20093;-60
2022/08/23 01:04:19;;;;;;;21.25;11.40;;;19.20;99.90;;;;;;5034178;28;20112;-60
2022/08/23 01:06:54;;;;;;;21.88;11.35;;;19.20;99.90;;;;;;5034317;28;20207;-60
2022/08/23 01:09:21;;;;;;;25.35;11.52;;;19.00;99.90;;;;;;5034398;28;20036;-59
2022/08/23 01:11:59;;;;;;;20.63;10.68;;;18.90;99.90;;;;;;5034410;28;20040;-60
2022/08/23 01:14:24;;;;;;;20.95;10.68;;;18.80;99.90;;;;;;5034129;28;20044;-60
2022/08/23 01:17:14;;;;;;;18.20;10.93;;;18.70;99.90;;;;;;5033969;28;20422;-59
2022/08/23 01:20:09;;;;;;;19.52;11.00;;;18.60;99.90;;;;;;5034637;28;20033;-60
2022/08/23 01:22:46;;;;;;;24.45;11.95;;;18.50;99.90;;;;;;5034113;28;20458;-59
2022/08/23 01:25:17;;;;;;;24.42;12.40;;;18.60;99.90;;;;;;5033952;28;20026;-59
2022/08/23 01:27:45;;;;;;;29.88;13.05;;;18.70;99.90;;;;;;5033938;28;20041;-59
2022/08/23 01:30:13;;;;;;;23.50;14.13;;;18.80;99.90;;;;;;5033878;28;20030;-60
2022/08/23 01:32:48;;;;;;;20.75;12.45;;;18.80;99.90;;;;;;5033621;28;20069;-60
2022/08/23 01:35:16;;;;;;;17.85;11.65;;;18.90;99.90;;;;;;5033733;28;20109;-60
2022/08/23 01:37:43;;;;;;;23.35;11.82;;;18.90;99.90;;;;;;5033537;28;20088;-60
2022/08/23 01:40:09;;;;;;;23.98;12.45;;;18.90;99.90;;;;;;5031841;28;20076;-59
2022/08/23 01:42:35;;;;;;;25.10;14.13;;;18.90;99.90;;;;;;5033605;28;20026;-59
2022/08/23 01:45:00;;;;;;;33.58;14.02;;;18.80;99.90;;;;;;5033451;28;20033;-60
2022/08/23 01:47:26;;;;;;;23.77;13.57;;;18.70;99.90;;;;;;5033251;28;20083;-59
2022/08/23 01:49:52;;;;;;;26.25;13.75;;;18.70;99.90;;;;;;5034073;28;20109;-59
2022/08/23 01:52:18;;;;;;;24.63;14.43;;;18.60;99.90;;;;;;5031952;28;20128;-60
2022/08/23 01:54:44;;;;;;;25.55;14.15;;;18.70;99.90;;;;;;5033480;28;20379;-59
2022/08/23 01:57:10;;;;;;;24.63;13.20;;;18.60;99.90;;;;;;5033447;28;20053;-59
2022/08/23 01:59:36;;;;;;;26.20;13.93;;;18.70;99.90;;;;;;5033116;28;20045;-60
2022/08/23 02:02:02;;;;;;;26.27;12.57;;;18.60;99.90;;;;;;5033174;28;20022;-59
2022/08/23 02:04:28;;;;;;;22.17;13.18;;;18.60;99.90;;;;;;5033093;28;20040;-60
2022/08/23 02:06:54;;;;;;;21.23;13.18;;;18.50;99.90;;;;;;5033345;28;20060;-59
2022/08/23 02:09:20;;;;;;;21.70;13.07;;;18.40;99.90;;;;;;5033338;28;20026;-59
2022/08/23 02:11:46;;;;;;;29.38;14.00;;;18.30;99.90;;;;;;5033424;28;20033;-59
2022/08/23 02:14:17;;;;;;;28.52;13.55;;;18.20;99.90;;;;;;5033004;28;20030;-59
2022/08/23 02:16:49;;;;;;;22.42;14.18;;;18.10;99.90;;;;;;5033089;28;20022;-59
2022/08/23 02:19:16;;;;;;;;;;;18.20;99.90;;;;;;5033406;28;20423;-59
2022/08/23 02:21:42;;;;;;;26.42;14.23;;;18.10;99.90;;;;;;5032509;28;19905;-59
2022/08/23 02:24:14;;;;;;;21.00;13.32;;;18.20;99.90;;;;;;5032609;28;20060;-59
2022/08/23 02:26:44;;;;;;;29.80;13.50;;;18.20;99.90;;;;;;5032697;28;20029;-59
2022/08/23 02:29:10;;;;;;;21.63;13.57;;;18.20;99.90;;;;;;5033057;28;20029;-59
2022/08/23 02:31:36;;;;;;;23.15;13.27;;;18.20;99.90;;;;;;5032559;28;20242;-59
2022/08/23 02:34:03;;;;;;;23.83;13.88;;;18.20;99.90;;;;;;5032519;28;20097;-59
2022/08/23 02:36:28;;;;;;;22.60;13.38;;;18.00;99.90;;;;;;5032121;28;20025;-59
2022/08/23 02:38:54;;;;;;;25.55;13.52;;;17.90;99.90;;;;;;5032653;28;20481;-59
2022/08/23 02:41:21;;;;;;;26.30;15.50;;;17.90;99.90;;;;;;5032368;28;20021;-60
2022/08/23 02:43:52;;;;;;;25.23;15.45;;;18.20;99.90;;;;;;5032327;28;20025;-58
2022/08/23 02:46:20;;;;;;;28.75;14.93;;;18.20;99.90;;;;;;5032196;28;20025;-59
2022/08/23 02:48:45;;;;;;;28.45;15.35;;;18.10;99.90;;;;;;5032836;28;20025;-59
2022/08/23 02:51:11;;;;;;;27.23;14.70;;;18.10;99.90;;;;;;5031740;28;20030;-58
2022/08/23 02:53:37;;;;;;;27.13;14.75;;;18.10;99.90;;;;;;5032162;28;20033;-60
2022/08/23 02:56:03;;;;;;;21.33;14.23;;;18.10;99.90;;;;;;5031945;28;20120;-59
2022/08/23 02:58:29;;;;;;;23.88;16.48;;;18.10;99.90;;;;;;5031988;28;20485;-58
2022/08/23 03:00:55;;;;;;;27.35;15.50;;;18.20;99.90;;;;;;5032165;28;20112;-58
2022/08/23 03:03:21;;;;;;;29.70;14.80;;;18.00;99.90;;;;;;5031793;28;20387;-58
2022/08/23 03:05:47;;;;;;;29.48;14.90;;;17.90;99.90;;;;;;5031991;28;20108;-58
2022/08/23 03:08:13;;;;;;;29.10;15.05;;;17.80;99.90;;;;;;5030865;28;20450;-59
2022/08/23 03:10:44;;;;;;;26.75;14.93;;;17.80;99.90;;;;;;5032415;28;20029;-58
2022/08/23 03:13:10;;;;;;;26.13;14.15;;;17.80;99.90;;;;;;5031858;28;20030;-58
2022/08/23 03:15:37;;;;;;;25.80;14.93;;;17.70;99.90;;;;;;5031611;28;20014;-58
2022/08/23 03:18:03;;;;;;;28.17;14.45;;;17.60;99.90;;;;;;5031956;28;20160;-58
2022/08/23 03:20:28;;;;;;;24.48;15.35;;;17.60;99.90;;;;;;5030545;28;20061;-58
2022/08/23 03:22:54;;;;;;;29.10;15.32;;;17.70;99.90;;;;;;5031772;28;20036;-58
2022/08/23 03:25:20;;;;;;;26.27;14.10;;;17.70;99.90;;;;;;5031703;28;20025;-58
2022/08/23 03:27:46;;;;;;;29.10;14.18;;;17.70;99.90;;;;;;5031813;28;20475;-58
2022/08/23 03:30:12;;;;;;;29.52;14.90;;;17.80;99.90;;;;;;5030305;28;20408;-60
2022/08/23 03:32:37;;;;;;;25.65;14.27;;;17.90;99.90;;;;;;5031545;28;20565;-59
2022/08/23 03:35:04;;;;;;;21.83;13.23;;;18.10;99.90;;;;;;5031342;28;20108;-59
2022/08/23 03:37:29;;;;;;;26.58;13.90;;;18.20;99.90;;;;;;5031267;28;20033;-59
2022/08/23 03:39:55;;;;;;;28.17;12.98;;;18.30;99.90;;;;;;5031424;28;20387;-58
2022/08/23 03:42:21;;;;;;;27.60;14.10;;;18.30;99.90;;;;;;5031132;28;20124;-58
2022/08/23 03:44:46;;;;;;;30.27;14.05;;;18.30;99.90;;;;;;5031137;28;20033;-59
2022/08/23 03:47:12;;;;;;;22.38;13.77;;;18.40;99.90;;;;;;5031754;28;20417;-58
2022/08/23 03:49:37;;;;;;;26.20;13.13;;;18.50;99.90;;;;;;5031250;28;20029;-59
2022/08/23 03:52:04;;;;;;;25.50;14.15;;;18.50;99.90;;;;;;5029691;28;20517;-59
2022/08/23 03:54:31;;;;;;;30.40;13.35;;;18.50;99.90;;;;;;5031105;28;20461;-58
2022/08/23 03:57:03;;;;;;;26.02;13.80;;;18.60;99.90;;;;;;5031004;28;20033;-58
2022/08/23 03:59:31;;;;;;;23.17;13.13;;;18.60;99.90;;;;;;5031120;28;20057;-59
2022/08/23 04:01:57;;;;;;;27.08;14.02;;;18.80;99.90;;;;;;5030790;28;20398;-59
2022/08/23 04:04:23;;;;;;;29.63;13.23;;;19.10;99.90;;;;;;5031278;28;20024;-59
2022/08/23 04:06:48;;;;;;;26.08;13.57;;;19.20;99.90;;;;;;5031336;28;20590;-58
2022/08/23 04:09:15;;;;;;;27.45;14.82;;;19.20;99.90;;;;;;5031328;28;20030;-59
2022/08/23 04:11:42;;;;;;;20.92;14.20;;;19.30;99.90;;;;;;5030889;28;20075;-59
2022/08/23 04:14:08;;;;;;;25.73;14.15;;;19.30;99.90;;;;;;5031346;28;20586;-59
2022/08/23 04:16:36;;;;;;;24.92;13.88;;;19.40;99.90;;;;;;5030957;28;20101;-59
2022/08/23 04:19:07;;;;;;;24.15;13.57;;;19.20;99.90;;;;;;5031290;28;20367;-59
2022/08/23 04:21:35;;;;;;;22.13;13.20;;;19.10;99.90;;;;;;5030710;28;20026;-59
2022/08/23 04:24:01;;;;;;;23.52;13.32;;;19.00;99.90;;;;;;5030928;28;20034;-58
2022/08/23 04:26:26;;;;;;;20.02;11.63;;;18.80;99.90;;;;;;5030575;28;20028;-58
2022/08/23 04:28:52;;;;;;;26.05;13.50;;;18.70;99.90;;;;;;5030996;28;20044;-59
2022/08/23 04:31:19;;;;;;;22.85;13.32;;;18.90;99.90;;;;;;5030770;28;20040;-59
2022/08/23 04:33:46;;;;;;;25.73;14.23;;;19.10;99.90;;;;;;5030730;28;20037;-60
2022/08/23 04:36:12;;;;;;;23.88;13.93;;;19.10;99.90;;;;;;5029487;28;20498;-58
2022/08/23 04:38:38;;;;;;;30.02;16.58;;;18.80;99.90;;;;;;5030808;28;20053;-58
2022/08/23 04:43:48;;;;;;;21.65;14.15;;;17.90;99.90;;;;;;5030498;28;20044;-58
2022/08/23 04:46:15;;;;;;;19.77;14.05;;;17.80;99.90;;;;;;5030932;28;20037;-59
2022/08/23 04:48:45;;;;;;;19.95;13.23;;;17.70;99.90;;;;;;5030678;28;20389;-59
2022/08/23 04:51:12;;;;;;;26.30;15.35;;;17.60;99.90;;;;;;5030674;28;20025;-59
2022/08/23 04:53:38;;;;;;;24.92;14.43;;;17.50;99.90;;;;;;5029469;28;20034;-59
2022/08/23 04:56:05;;;;;;;20.73;13.82;;;17.80;99.90;;;;;;5030423;28;20056;-59
2022/08/23 04:58:32;;;;;;;23.08;14.20;;;17.80;99.90;;;;;;5030633;28;20032;-59
2022/08/23 05:01:00;;;;;;;26.40;14.45;;;17.70;99.90;;;;;;5030694;28;20030;-59
2022/08/23 05:03:27;;;;;;;21.83;15.07;;;17.80;99.90;;;;;;5030677;28;20034;-59
2022/08/23 05:05:53;;;;;;;25.75;16.25;;;18.20;99.90;;;;;;5030541;28;20026;-59
2022/08/23 05:08:19;;;;;;;21.63;14.23;;;18.30;99.90;;;;;;5030635;28;20025;-60
2022/08/23 05:10:45;;;;;;;26.42;15.07;;;18.10;99.90;;;;;;5030749;28;20025;-59
2022/08/23 05:13:12;;;;;;;27.63;14.43;;;18.10;99.90;;;;;;5030561;28;20033;-59
2022/08/23 05:15:38;;;;;;;25.30;13.85;;;18.10;99.90;;;;;;5033095;28;20029;-59
2022/08/23 05:18:04;;;;;;;25.52;14.70;;;18.00;99.90;;;;;;5034153;28;20477;-59
2022/08/23 05:20:30;;;;;;;25.02;13.93;;;17.90;99.90;;;;;;5033792;28;20029;-59
2022/08/23 05:22:56;;;;;;;21.95;13.57;;;17.90;99.90;;;;;;5033838;28;20390;-59
2022/08/23 05:25:22;;;;;;;21.98;13.77;;;17.90;99.90;;;;;;5032293;28;20037;-59
2022/08/23 05:27:47;;;;;;;26.00;14.50;;;17.70;99.90;;;;;;5032427;28;20498;-59
2022/08/23 05:30:13;;;;;;;24.25;14.27;;;17.70;99.90;;;;;;5033659;28;20026;-59
2022/08/23 05:32:39;;;;;;;21.90;14.35;;;17.70;99.90;;;;;;5033305;28;20537;-59
2022/08/23 05:35:05;;;;;;;26.13;15.20;;;17.60;99.90;;;;;;5033406;28;20124;-59
2022/08/23 05:37:31;;;;;;;24.60;14.70;;;17.60;99.90;;;;;;5033280;28;20033;-59
2022/08/23 05:39:57;;;;;;;20.20;14.07;;;17.60;99.90;;;;;;5033558;28;20080;-60
2022/08/23 05:42:23;;;;;;;23.70;14.95;;;17.50;99.90;;;;;;5033465;28;20028;-59
2022/08/23 05:44:49;;;;;;;28.45;14.80;;;17.50;99.90;;;;;;5033346;28;20025;-59
2022/08/23 05:47:15;;;;;;;24.65;15.45;;;17.40;99.90;;;;;;5033334;28;20036;-58
2022/08/23 05:49:41;;;;;;;26.00;15.65;;;17.40;99.90;;;;;;5033485;28;20111;-59
2022/08/23 05:52:12;;;;;;;24.90;15.55;;;17.40;99.90;;;;;;5031947;28;20037;-59
2022/08/23 05:54:38;;;;;;;25.85;15.18;;;17.50;99.90;;;;;;5033293;28;20026;-59
2022/08/23 05:57:04;;;;;;;29.77;15.93;;;17.60;99.90;;;;;;5032947;28;20072;-58
2022/08/23 05:59:30;;;;;;;23.35;15.48;;;17.70;99.90;;;;;;5032963;28;20077;-59
2022/08/23 06:01:56;;;;;;;27.17;16.30;;;17.70;99.90;;;;;;5031875;28;20064;-59
2022/08/23 06:04:22;;;;;;;27.67;16.27;;;17.70;99.90;;;;;;5032830;28;20022;-58
2022/08/23 06:06:47;;;;;;;26.13;15.68;;;17.70;99.90;;;;;;5032815;28;20380;-59
2022/08/23 06:09:16;;;;;;;22.85;15.02;;;17.80;99.90;;;;;;5033159;28;20037;-59
2022/08/23 06:11:43;;;;;;;25.92;15.48;;;17.90;99.90;;;;;;5015099;28;20021;-59
2022/08/23 06:14:10;;;;;;;25.17;16.40;;;17.90;99.90;;;;;;5032760;28;20029;-58
2022/08/23 06:16:39;;;;;;;22.63;15.15;;;17.90;99.90;;;;;;5032655;28;20442;-59
2022/08/23 06:19:07;;;;;;;23.33;15.00;;;17.90;99.90;;;;;;5032731;28;20544;-59
2022/08/23 06:21:34;;;;;;;26.45;15.35;;;18.00;99.90;;;;;;5032499;28;20501;-59
2022/08/23 06:24:01;;;;;;;23.00;15.20;;;18.20;99.90;;;;;;5032508;28;20033;-59
2022/08/23 06:26:30;;;;;;;22.85;13.95;;;18.30;99.90;;;;;;5030909;28;20022;-59
2022/08/23 06:28:59;;;;;;;22.88;14.07;;;18.40;99.90;;;;;;5032579;28;20030;-59
2022/08/23 06:31:45;;;;;;;26.42;14.15;;;18.60;99.90;;;;;;5032718;28;20037;-59
2022/08/23 06:34:18;;;;;;;22.25;14.15;;;18.70;99.90;;;;;;5032329;28;20029;-59
2022/08/23 06:36:48;;;;;;;19.85;12.82;;;18.80;99.90;;;;;;5042622;28;20025;-59
2022/08/23 06:39:16;;;;;;;19.30;11.55;;;19.00;99.90;;;;;;5045354;28;20537;-59
2022/08/23 06:41:42;;;;;;;24.33;10.70;;;19.10;99.90;;;;;;5039576;28;20024;-59
2022/08/23 06:44:08;;;;;;;18.45;10.60;;;19.20;99.90;;;;;;5033902;28;20032;-59
2022/08/23 06:46:35;;;;;;;21.27;10.70;;;19.20;99.90;;;;;;5040127;28;20033;-59
2022/08/23 06:49:04;;;;;;;20.00;10.38;;;19.30;99.90;;;;;;5045156;28;20032;-59
2022/08/23 06:51:36;;;;;;;17.75;10.05;;;19.30;99.90;;;;;;5049743;28;20389;-59
2022/08/23 06:54:06;;;;;;;19.33;10.43;;;19.30;99.90;;;;;;5044720;28;20036;-59
2022/08/23 06:56:31;;;;;;;17.33;9.88;;;19.40;99.90;;;;;;5044462;28;20506;-59
2022/08/23 06:58:58;;;;;;;21.20;9.40;;;19.50;99.90;;;;;;5049795;28;20056;-59
2022/08/23 07:01:54;;;;;;;21.70;9.82;;;19.50;99.90;;;;;;5049344;28;20021;-59
2022/08/23 07:04:23;;;;;;;16.85;8.50;;;19.60;99.90;;;;;;5047010;28;20025;-60
2022/08/23 07:06:49;;;;;;;27.60;8.95;;;19.60;99.90;;;;;;5042699;28;20060;-59
2022/08/23 07:09:16;;;;;;;19.17;8.23;;;19.70;99.90;;;;;;5048417;28;20045;-59
2022/08/23 07:11:42;;;;;;;16.38;7.65;;;19.80;99.90;;;;;;5043515;28;20032;-59
2022/08/23 07:14:11;;;;;;;14.38;8.43;;;19.80;99.90;;;;;;5045804;28;20037;-59
2022/08/23 07:16:44;;;;;;;15.90;7.85;;;19.90;99.90;;;;;;5049427;28;20592;-59
2022/08/23 07:19:11;;;;;;;15.98;8.10;;;20.00;99.90;;;;;;5050157;28;20017;-59
2022/08/23 07:21:38;;;;;;;21.05;7.78;;;20.00;99.90;;;;;;5049837;28;20017;-59
2022/08/23 07:24:04;;;;;;;12.23;6.85;;;20.50;99.90;;;;;;5047953;28;20029;-59
2022/08/23 07:26:30;;;;;;;12.70;6.28;;;21.70;99.90;;;;;;5048015;28;20025;-60
2022/08/23 07:28:56;;;;;;;16.70;6.57;;;22.90;99.90;;;;;;5046209;28;20486;-60
2022/08/23 07:31:26;;;;;;;14.38;6.60;;;24.00;99.90;;;;;;5048838;28;20107;-60
2022/08/23 07:33:53;;;;;;;18.20;5.55;;;24.90;99.90;;;;;;5049771;28;20044;-60
2022/08/23 07:36:22;;;;;;;19.00;5.88;;;25.20;99.90;;;;;;5044340;28;20080;-60
2022/08/23 07:38:48;;;;;;;17.67;5.60;;;25.30;99.90;;;;;;5030502;28;20052;-60
2022/08/23 07:41:16;;;;;;;18.35;6.00;;;24.70;99.90;;;;;;5039015;28;20029;-60
2022/08/23 07:43:42;;;;;;;9.98;5.40;;;24.40;99.90;;;;;;5047689;28;20130;-60
2022/08/23 07:46:09;;;;;;;13.20;5.18;;;24.30;99.90;;;;;;5034971;28;20958;-60
2022/08/23 07:48:35;;;;;;;11.95;5.60;;;24.20;99.90;;;;;;5042214;28;20033;-60
2022/08/23 07:51:05;;;;;;;13.30;5.63;;;24.20;99.90;;;;;;5040160;28;20056;-60
2022/08/23 07:53:30;;;;;;;11.05;5.63;;;24.20;99.90;;;;;;5028525;28;20245;-60
2022/08/23 07:55:56;;;;;;;8.52;5.13;;;24.20;99.90;;;;;;5037645;28;20094;-60
2022/08/23 07:58:23;;;;;;;13.15;5.97;;;24.60;99.90;;;;;;5049971;28;20033;-60
2022/08/23 08:00:50;;;;;;;13.32;6.10;;;24.50;99.90;;;;;;5048773;28;20500;-60
2022/08/23 08:03:17;;;;;;;12.13;6.00;;;24.40;99.90;;;;;;5028282;28;20064;-60
2022/08/23 08:05:43;;;;;;;14.02;6.03;;;24.60;99.90;;;;;;5030524;28;20029;-61
2022/08/23 08:08:10;;;;;;;14.80;6.47;;;24.70;99.90;;;;;;5036864;28;20037;-61
2022/08/23 08:10:40;;;;;;;11.95;6.38;;;25.30;99.90;;;;;;5049262;28;20040;-58
2022/08/23 08:13:07;;;;;;;15.50;7.15;;;26.10;99.90;;;;;;5029241;28;20032;-59
2022/08/23 08:15:33;;;;;;;14.85;7.00;;;26.10;99.90;;;;;;5048774;28;20021;-58
2022/08/23 08:17:59;;;;;;;11.57;6.93;;;26.00;99.90;;;;;;5047691;28;20025;-58
2022/08/23 08:20:26;;;;;;;14.90;6.82;;;26.20;99.90;;;;;;5040419;28;20021;-58
2022/08/23 08:22:53;;;;;;;12.38;6.93;;;26.40;99.90;;;;;;5034152;28;20052;-59
2022/08/23 08:25:18;;;;;;;15.65;6.95;;;27.10;99.90;;;;;;5039223;28;20059;-59
2022/08/23 08:27:44;;;;;;;15.82;6.75;;;27.40;99.90;;;;;;5042624;28;20025;-59
2022/08/23 08:30:10;;;;;;;11.50;6.55;;;27.40;99.90;;;;;;5044760;28;20116;-59
2022/08/23 08:32:37;;;;;;;11.77;6.53;;;28.20;99.90;;;;;;5047238;28;20525;-59
2022/08/23 08:35:04;;;;;;;15.27;6.43;;;28.70;99.90;;;;;;5048523;28;20520;-59
2022/08/23 08:37:30;;;;;;;11.13;6.45;;;28.80;99.90;;;;;;5045692;28;20029;-59
2022/08/23 08:39:57;;;;;;;11.75;6.00;;;28.90;99.90;;;;;;5045089;28;20041;-60
2022/08/23 08:43:04;;;;;;;13.52;5.60;;;28.70;99.90;;;;;;5046823;28;20532;-59
2022/08/23 08:45:43;;;;;;;11.70;5.57;;;28.90;99.90;;;;;;5045513;28;20124;-59
2022/08/23 08:48:14;;;;;;;14.77;4.97;;;29.00;99.90;;;;;;5047528;28;20104;-59
2022/08/23 08:50:46;;;;;;;13.32;5.03;;;29.30;99.90;;;;;;5050418;28;20029;-59
2022/08/23 08:53:24;;;;;;;13.45;4.97;;;29.70;99.90;;;;;;5043572;28;20045;-59
2022/08/23 08:55:56;;;;;;;16.40;4.40;;;29.10;99.90;;;;;;5049227;28;20394;-59
2022/08/23 08:58:40;;;;;;;10.90;4.13;;;28.60;99.90;;;;;;5045964;28;20104;-59
2022/08/23 09:01:06;;;;;;;6.78;3.28;;;28.80;99.90;;;;;;5047291;28;20029;-59
2022/08/23 09:03:34;;;;;;;6.90;2.90;;;28.90;99.90;;;;;;5045307;28;20029;-59
2022/08/23 09:06:26;;;;;;;6.53;2.60;;;28.40;99.90;;;;;;5044330;28;20029;-59
2022/08/23 09:09:25;;;;;;;6.97;2.80;;;28.60;99.90;;;;;;5044985;28;20029;-60
2022/08/23 09:12:05;;;;;;;9.18;2.28;;;29.60;99.90;;;;;;5044503;28;20021;-60
2022/08/23 09:14:57;;;;;;;9.30;2.50;;;30.20;99.90;;;;;;5036079;28;20033;-61
2022/08/23 09:17:42;;;;;;;4.32;2.15;;;30.60;99.90;;;;;;5042441;28;20047;-60
2022/08/23 09:20:11;;;;;;;7.57;2.75;;;30.80;99.90;;;;;;5049963;28;20428;-60
2022/08/23 09:22:44;;;;;;;6.60;2.80;;;29.90;99.90;;;;;;5047541;28;20033;-60
2022/08/23 09:25:11;;;;;;;4.88;2.50;;;29.90;99.90;;;;;;5047204;28;20487;-60
2022/08/23 09:27:40;;;;;;;9.23;2.60;;;29.80;99.90;;;;;;5040532;28;20082;-60
2022/08/23 09:30:07;;;;;;;4.40;2.67;;;29.30;99.90;;;;;;5040634;28;20143;-60
2022/08/23 09:32:36;;;;;;;6.63;2.30;;;29.00;99.90;;;;;;5047289;28;20352;-60
2022/08/23 09:35:24;;;;;;;4.65;2.30;;;29.10;99.90;;;;;;5044754;28;20036;-60
2022/08/23 09:37:57;;;;;;;5.82;1.80;;;29.90;99.90;;;;;;5050222;28;20033;-60
2022/08/23 09:40:31;;;;;;;4.97;1.70;;;29.80;99.90;;;;;;5044419;28;20505;-62
2022/08/23 09:43:10;;;;;;;3.63;1.92;;;29.70;99.90;;;;;;5040128;28;20043;-61
2022/08/23 09:45:39;;;;;;;6.22;1.73;;;29.80;99.90;;;;;;5039045;28;21553;-62
2022/08/23 09:48:06;;;;;;;4.03;1.75;;;29.60;99.90;;;;;;5041592;28;20210;-61
2022/08/23 09:50:41;;;;;;;4.65;1.88;;;28.40;99.90;;;;;;5044616;28;20572;-62
2022/08/23 09:53:12;;;;;;;5.50;2.05;;;27.80;99.90;;;;;;5036861;28;20036;-62
2022/08/23 09:55:41;;;;;;;3.38;1.55;;;28.20;99.90;;;;;;5031254;28;20059;-62
2022/08/23 09:58:30;;;;;;;4.43;1.20;;;28.70;99.90;;;;;;5040766;28;20056;-61
2022/08/23 10:01:07;;;;;;;2.75;1.10;;;28.70;99.90;;;;;;5040155;28;20102;-61
2022/08/23 10:03:33;;;;;;;2.53;1.00;;;28.50;99.90;;;;;;5045244;28;20028;-62
2022/08/23 10:06:00;;;;;;;1.85;1.10;;;28.80;99.90;;;;;;5040586;28;20022;-61
2022/08/23 10:08:32;;;;;;;2.75;1.02;;;29.30;99.90;;;;;;5040402;28;20036;-62
2022/08/23 10:11:18;;;;;;;4.32;1.20;;;28.20;99.90;;;;;;5039742;28;20032;-61
2022/08/23 10:13:43;;;;;;;2.40;1.17;;;27.40;99.90;;;;;;5040525;28;20033;-62
2022/08/23 10:16:15;;;;;;;3.33;1.30;;;27.20;99.90;;;;;;5042625;28;20112;-62
2022/08/23 10:19:19;;;;;;;1.92;0.95;;;27.00;99.90;;;;;;5041220;28;20053;-61
2022/08/23 10:22:08;;;;;;;1.70;0.98;;;26.90;99.90;;;;;;5017851;28;20079;-59
2022/08/23 10:24:44;;;;;;;2.45;1.02;;;27.30;99.90;;;;;;5042370;28;20041;-59
2022/08/23 10:30:25;;;;;;;2.67;0.95;;;29.30;99.90;;;;;;5040073;28;20036;-60
2022/08/23 10:33:08;;;;;;;2.35;1.25;;;28.60;99.90;;;;;;5033563;28;20433;-59
2022/08/23 10:35:42;;;;;;;4.07;1.20;;;28.30;99.90;;;;;;5044824;28;20024;-61
2022/08/23 10:38:19;;;;;;;2.00;1.15;;;27.80;99.90;;;;;;5049608;28;20505;-61
2022/08/23 10:41:11;;;;;;;3.83;1.42;;;27.60;99.90;;;;;;5040351;28;20537;-61
2022/08/23 10:43:55;;;;;;;1.35;1.23;;;27.40;99.90;;;;;;5030414;28;20029;-61
2022/08/23 10:46:21;;;;;;;1.65;1.30;;;27.10;99.90;;;;;;5034657;28;20390;-61
2022/08/23 10:48:54;;;;;;;2.47;1.33;;;27.10;99.90;;;;;;5033491;28;20569;-61
2022/08/23 10:51:43;;;;;;;1.88;0.82;;;27.70;99.90;;;;;;5031782;28;20044;-61
2022/08/23 10:54:45;;;;;;;1.92;1.00;;;28.80;99.90;;;;;;5043790;28;20044;-61
2022/08/23 10:57:16;;;;;;;3.70;1.20;;;29.10;99.90;;;;;;5039100;28;20806;-62
2022/08/23 10:59:45;;;;;;;4.70;1.60;;;29.20;99.90;;;;;;5031358;28;20623;-62
2022/08/23 11:02:26;;;;;;;7.40;1.60;;;28.40;99.90;;;;;;5031043;28;20087;-61
2022/08/23 11:05:07;;;;;;;3.15;1.40;;;27.70;99.90;;;;;;5030863;28;20441;-61
2022/08/23 11:07:36;;;;;;;4.40;1.80;;;27.40;99.90;;;;;;5030737;28;20079;-61
2022/08/23 11:10:04;;;;;;;3.97;1.80;;;27.60;99.90;;;;;;5031245;28;20052;-61
2022/08/23 11:12:48;;;;;;;3.00;1.90;;;27.40;99.90;;;;;;5030314;28;20053;-61
2022/08/23 11:15:26;;;;;;;5.15;1.80;;;27.10;99.90;;;;;;5061892;28;20029;-61
2022/08/23 11:17:56;;;;;;;2.22;1.55;;;27.00;99.90;;;;;;5032354;28;20532;-60
2022/08/23 11:20:50;;;;;;;3.15;1.90;;;27.40;99.90;;;;;;5031145;28;20017;-61
2022/08/23 11:23:37;;;;;;;4.28;1.67;;;28.40;99.90;;;;;;5029364;28;20056;-62
2022/08/23 11:26:06;;;;;;;3.22;1.95;;;29.70;99.90;;;;;;5029803;28;20037;-60
2022/08/23 11:28:43;;;;;;;3.47;1.90;;;30.10;99.90;;;;;;5042994;28;20037;-60
2022/08/23 11:31:28;;;;;;;2.67;1.85;;;29.90;99.90;;;;;;5043927;28;20037;-60
2022/08/23 11:34:22;;;;;;;6.18;2.03;;;29.70;99.90;;;;;;5033002;28;20482;-60
2022/08/23 11:37:16;;;;;;;2.38;1.70;;;28.10;99.90;;;;;;5035778;28;20497;-60
2022/08/23 11:39:57;;;;;;;2.00;1.10;;;27.40;99.90;;;;;;5042237;28;20032;-61
2022/08/23 11:42:35;;;;;;;0.90;0.90;;;27.70;99.90;;;;;;5042212;28;20124;-61
2022/08/23 11:45:19;;;;;;;1.48;0.80;;;27.90;99.90;;;;;;5033494;28;20033;-61
2022/08/23 11:47:46;;;;;;;1.20;0.93;;;29.00;99.90;;;;;;5033773;28;20449;-61
2022/08/23 11:50:28;;;;;;;2.45;1.00;;;29.40;99.90;;;;;;5038692;28;20033;-61
2022/08/23 11:53:28;;;;;;;1.80;0.98;;;28.70;99.90;;;;;;5044836;28;20032;-61
2022/08/23 11:56:15;;;;;;;1.42;0.80;;;29.90;99.90;;;;;;5037934;28;20021;-62
2022/08/23 11:59:04;;;;;;;1.13;0.50;;;31.10;99.90;;;;;;5039952;28;20393;-62
2022/08/23 12:01:36;;;;;;;0.95;0.60;;;31.60;99.00;;;;;;5037194;28;20551;-62
2022/08/23 12:04:27;;;;;;;0.60;0.60;;;31.00;99.80;;;;;;5038109;28;20052;-61
2022/08/23 12:07:00;;;;;;;1.35;0.70;;;31.10;99.60;;;;;;5032564;28;20042;-61
2022/08/23 12:09:26;;;;;;;2.20;0.60;;;31.40;98.40;;;;;;5048264;28;20048;-62
2022/08/23 12:11:54;;;;;;;1.98;0.82;;;31.50;97.40;;;;;;5032964;28;20053;-62
2022/08/23 12:14:35;;;;;;;0.50;0.50;;;31.00;98.50;;;;;;5036333;28;20053;-62
2022/08/23 12:17:03;;;;;;;2.88;0.70;;;31.60;97.70;;;;;;5047383;28;20405;-62
2022/08/23 12:19:37;;;;;;;0.73;0.60;;;31.60;97.50;;;;;;5046078;28;20028;-62
2022/08/23 12:22:17;;;;;;;2.10;0.88;;;32.40;95.40;;;;;;5049632;28;20105;-61
2022/08/23 12:24:53;;;;;;;1.73;0.70;;;31.90;96.20;;;;;;5042948;28;20032;-62
2022/08/23 12:27:32;;;;;;;0.65;0.65;;;31.40;97.20;;;;;;5048891;28;20025;-61
2022/08/23 12:30:22;;;;;;;1.88;1.05;;;31.00;98.20;;;;;;5038066;28;20024;-61
2022/08/23 12:33:19;;;;;;;0.98;0.80;;;31.30;97.00;;;;;;5047845;28;20119;-61
2022/08/23 12:36:03;;;;;;;2.08;1.00;;;30.40;98.20;;;;;;5047878;28;20029;-62
2022/08/23 12:38:53;;;;;;;2.00;1.00;;;29.90;99.00;;;;;;5047995;28;20033;-62
2022/08/23 12:41:22;;;;;;;2.50;1.08;;;29.60;99.90;;;;;;5050055;28;20029;-61
2022/08/23 12:44:02;;;;;;;1.02;0.80;;;29.10;99.90;;;;;;5046151;28;20041;-61
2022/08/23 12:46:38;;;;;;;3.17;1.25;;;28.70;99.90;;;;;;5049826;28;20382;-62
2022/08/23 12:49:07;;;;;;;3.72;1.10;;;29.80;99.90;;;;;;5045845;28;20107;-62
2022/08/23 12:51:40;;;;;;;2.47;1.48;;;30.60;99.90;;;;;;5042617;28;20497;-62
2022/08/23 12:54:14;;;;;;;3.22;1.00;;;30.60;99.70;;;;;;5049523;28;20040;-62
2022/08/23 12:56:45;;;;;;;3.70;0.90;;;30.90;99.40;;;;;;5048254;28;20064;-63
2022/08/23 12:59:32;;;;;;;3.90;1.00;;;32.30;97.30;;;;;;5050998;28;20045;-63
2022/08/23 13:02:01;;;;;;;0.90;0.70;;;33.70;94.40;;;;;;5049079;28;20126;-63
2022/08/23 13:04:37;;;;;;;0.57;0.57;;;34.40;91.70;;;;;;5044910;28;20336;-62
2022/08/23 13:07:07;;;;;;;1.15;0.70;;;33.60;90.60;;;;;;5047202;28;20041;-62